Current Weather

Ngiva

Ngiva, Angola (FNGI)

Report from: Saturday, February 4, 2023 2:00 PM UTC
Current time: Sunday, February 5, 2023 3:32 AM UTC

Nearby weather
Weather history
Weather forecast

Temperature31.0°C (87.8°F)
Heat index29.3°C (84.7°F)
Dew point8.0°C (46.4°F)
Winds 5 kts (2.6 m/s, 5.8 mph) South-Southwest (210°)
Visibility6.2 mi. (10 km)
Clouds Few clouds 2,000 ft. (610 m)
Altimeter29.91 in.Hg (1013 mB)
Relative humidity24 %
Density altitude1,995 ft. (608 m)
Flight conditions Visual Meteorological Conditions
Raw dataFNGI 041400Z 21005KT 9999 FEW020 31/08 Q1013
An unhandled exception has occurred. See browser dev tools for details. Reload 🗙